This is the latest recevied weather packets stored in our database for station/object WB4ROX-10. If no packets are shown the sender has not sent any weather packets the latest 10 day(s).
| Time | Temp. | Humidity | Pressure | Rain* | Wind** | Luminosity | Snow |
|---|---|---|---|---|---|---|---|
| 1787784040 | 17.78° C | 92% | 1014.3 hPa | 0 mm | - | - | - |
| 1787783740 | 17.78° C | 92% | 1014.2 hPa | 0 mm | - | - | - |
| 1787761239 | 20.56° C | 68% | 1016 hPa | 0 mm | - | - | - |
| 1787752240 | 17.22° C | 81% | 1015.7 hPa | 0 mm | - | - | - |
| 1787745940 | 14.44° C | 91% | 1015.8 hPa | 0 mm | - | - | - |
| 1787743841 | 14.44° C | 90% | 1015.4 hPa | 0 mm | - | - | - |
| 1787741139 | 14.44° C | 93% | 1014.9 hPa | 0 mm | - | - | - |
| 1787740841 | 13.89° C | 93% | 1015 hPa | 0 mm | - | - | - |
| 1787736939 | 13.89° C | 92% | 1015.1 hPa | 0 mm | - | - | - |
| 1787721341 | 14.44° C | 90% | 1015.5 hPa | 0 mm | - | - | - |
| 1787720140 | 15° C | 89% | 1015.7 hPa | 0 mm | - | - | - |
| 1787716540 | 14.44° C | 92% | 1015.8 hPa | 0 mm | - | - | - |
| 1787713841 | 14.44° C | 93% | 1015.8 hPa | 0 mm | - | - | - |
| 1787712940 | 15° C | 93% | 1016.2 hPa | 0 mm | - | - | - |
| 1787712340 | 15° C | 93% | 1016.3 hPa | 0 mm | - | - | - |
| 1787712042 | 15° C | 92% | 1016.4 hPa | 0 mm | - | - | - |
| 1787711740 | 15° C | 92% | 1016 hPa | 0 mm | - | - | - |
| 1787711141 | 15° C | 91% | 1016.1 hPa | 0 mm | - | - | - |
| 1787710840 | 15° C | 91% | 1016.2 hPa | 0 mm | - | - | - |
| 1787710240 | 15° C | 91% | 1016.1 hPa | 0 mm | - | - | - |
| 1787709940 | 15° C | 91% | 1016 hPa | 0 mm | - | - | - |
| 1787706640 | 15° C | 79% | 1015.6 hPa | 0 mm | - | - | - |
| 1787706340 | 15° C | 80% | 1015.6 hPa | 0 mm | - | - | - |
| 1787706042 | 15° C | 81% | 1015.7 hPa | 0 mm | - | - | - |
| 1787705440 | 15° C | 82% | 1015.4 hPa | 0 mm | - | - | - |
* Rain latest hour (hover to see other rain measurements)
** Current wind speed in m/s (hover to see current wind gust speed)